Terminal Aerodrome Forecast
Issued by NWS

Home | Current Version | Previous Version | Text Only | Print | Product List | Glossary On
Versions: 1 2 3 4 5 6 7 8 9 10 11 12
000
FTUS46 KSEW 062300
TAFBFI
TAF
KBFI 062325Z 0700/0724 32003KT P6SM BKN250
     FM070200 00000KT P6SM SCT250
     FM072100 33006KT P6SM SKC=

USA.gov is the U.S. government's official web portal to all federal, state and local government web resources and services.